McLouth, Kansas
Current Conditions -  °F | °C
As of 11:52 PM on Friday 28 Nov 2014 (Local Time) from KLWC Reporting Station
Clear Clear  
Wind Chill: 52°   Ceiling: Unl
Heat Index: 52°   Visibility: 10mi
Dew Point: 38°   Wind: 9mph
Humidity: 59%   Direction: 190°S
Pressure: 29.73"   Gusts: NA
Location:  39.2°N, 95.21°W
Report Text: KLWC 290552Z AUTO 19008KT 10SM CLR 11/03 A2973 RMK AO2 SLP066 T01110033 10122 20100 401721028 58014
Loading
Personal Weather Stations






























Interactive Weather Map New forecast layout! Learn more

10-Day Weather Forecast

Advertisements
Track Severe Weather on mobile